createdAt,value
2023-04-11T00:00:14.890Z,91.83
2023-04-11T00:02:41.525Z,92.29
2023-04-11T00:05:08.954Z,92.00
2023-04-11T00:07:35.900Z,92.28
2023-04-11T00:10:02.987Z,92.22
2023-04-11T00:12:29.529Z,92.32
2023-04-11T00:14:55.986Z,92.34
2023-04-11T00:17:23.855Z,92.50
2023-04-11T00:19:53.277Z,92.18
2023-04-11T00:22:19.770Z,91.67
2023-04-11T00:24:46.262Z,92.79
2023-04-11T00:27:12.678Z,93.72
2023-04-11T00:29:39.095Z,94.08
2023-04-11T00:32:05.883Z,93.71
2023-04-11T00:34:34.138Z,93.54
2023-04-11T00:37:01.543Z,95.60
2023-04-11T00:39:30.321Z,96.09
2023-04-11T00:42:07.652Z,96.20
2023-04-11T00:44:36.156Z,95.89
2023-04-11T00:47:06.519Z,95.19
2023-04-11T00:49:33.406Z,94.86
2023-04-11T00:52:00.562Z,94.88
2023-04-11T00:54:30.044Z,94.47
2023-04-11T00:57:01.690Z,94.54
2023-04-11T00:59:29.621Z,94.69
2023-04-11T01:01:57.006Z,93.99
2023-04-11T01:04:24.169Z,93.51
2023-04-11T01:07:03.880Z,93.67
2023-04-11T01:09:32.691Z,93.53
2023-04-11T01:11:59.436Z,92.49
2023-04-11T01:14:27.143Z,93.96
2023-04-11T01:16:56.288Z,92.75
2023-04-11T01:19:26.586Z,93.18
2023-04-11T01:21:56.008Z,93.81
2023-04-11T01:24:22.549Z,94.59
2023-04-11T01:26:49.207Z,95.93
2023-04-11T01:29:15.639Z,95.56
2023-04-11T01:31:43.102Z,96.73
2023-04-11T01:34:12.875Z,97.66
2023-04-11T01:36:40.912Z,98.50
2023-04-11T01:39:07.714Z,99.22
2023-04-11T01:41:35.493Z,98.93
2023-04-11T01:44:05.251Z,99.12
2023-04-11T01:46:32.434Z,99.41
2023-04-11T01:49:00.481Z,99.03
2023-04-11T01:51:27.619Z,100.00
2023-04-11T01:53:54.517Z,100.00
2023-04-11T01:56:21.213Z,99.95
2023-04-11T01:58:47.718Z,99.97
2023-04-11T02:01:18.113Z,100.00
2023-04-11T02:03:45.146Z,100.00
2023-04-11T02:06:11.931Z,100.00
2023-04-11T02:08:38.354Z,100.00
2023-04-11T02:11:05.251Z,100.00
2023-04-11T02:13:31.725Z,100.00
2023-04-11T02:15:58.259Z,100.00
2023-04-11T02:18:24.714Z,100.00
2023-04-11T02:20:51.182Z,99.74
2023-04-11T02:23:17.622Z,100.00
2023-04-11T02:25:44.122Z,100.00
2023-04-11T02:28:10.624Z,100.00
2023-04-11T02:30:37.048Z,99.99
2023-04-11T02:33:04.321Z,99.96
2023-04-11T02:35:31.109Z,99.96
2023-04-11T02:37:57.684Z,100.00
2023-04-11T02:40:24.109Z,100.00
2023-04-11T02:42:50.605Z,100.00
2023-04-11T02:45:17.046Z,100.00
2023-04-11T02:47:43.495Z,100.00
2023-04-11T02:50:10.327Z,100.00
2023-04-11T02:52:39.237Z,100.00
2023-04-11T02:55:06.114Z,100.00
2023-04-11T02:57:32.511Z,100.00
2023-04-11T02:59:59.148Z,100.00
2023-04-11T03:02:25.873Z,100.00
2023-04-11T03:04:52.484Z,100.00
2023-04-11T03:07:18.871Z,100.00
2023-04-11T03:09:45.341Z,100.00
2023-04-11T03:12:11.826Z,100.00
2023-04-11T03:14:38.230Z,100.00
2023-04-11T03:17:04.691Z,100.00
2023-04-11T03:19:31.113Z,100.00
2023-04-11T03:21:57.538Z,100.00
2023-04-11T03:24:23.915Z,100.00
2023-04-11T03:26:50.467Z,100.00
2023-04-11T03:29:16.850Z,100.00
2023-04-11T03:31:43.316Z,100.00
2023-04-11T03:34:09.798Z,100.00
2023-04-11T03:36:36.212Z,100.00
2023-04-11T03:39:02.887Z,100.00
2023-04-11T03:41:29.479Z,100.00
2023-04-11T03:43:55.887Z,100.00
2023-04-11T03:46:22.335Z,100.00
2023-04-11T03:48:48.782Z,100.00
2023-04-11T03:51:15.428Z,100.00
2023-04-11T03:53:41.855Z,100.00
2023-04-11T03:56:09.101Z,100.00
2023-04-11T03:58:36.074Z,100.00
2023-04-11T04:01:02.669Z,100.00
2023-04-11T04:03:29.386Z,100.00
2023-04-11T04:05:55.917Z,100.00
2023-04-11T04:08:22.347Z,100.00
2023-04-11T04:10:48.822Z,100.00
2023-04-11T04:13:15.279Z,100.00
2023-04-11T04:15:42.344Z,100.00
2023-04-11T04:18:08.859Z,100.00
2023-04-11T04:20:35.319Z,100.00
2023-04-11T04:23:04.459Z,100.00
2023-04-11T04:25:30.891Z,100.00
2023-04-11T04:27:57.989Z,100.00
2023-04-11T04:30:28.530Z,100.00
2023-04-11T04:32:58.878Z,100.00
2023-04-11T04:35:26.410Z,100.00
2023-04-11T04:37:54.023Z,100.00
2023-04-11T04:40:20.685Z,100.00
2023-04-11T04:42:58.075Z,100.00
2023-04-11T04:45:26.061Z,100.00
2023-04-11T04:47:52.564Z,100.00
2023-04-11T04:50:20.044Z,100.00
2023-04-11T04:52:47.088Z,100.00
2023-04-11T04:55:14.259Z,100.00
2023-04-11T04:57:40.692Z,100.00
2023-04-11T05:00:11.501Z,100.00
2023-04-11T05:02:38.182Z,100.00
2023-04-11T05:05:05.210Z,100.00
2023-04-11T05:07:31.752Z,100.00
2023-04-11T05:09:58.162Z,100.00
2023-04-11T05:12:27.034Z,100.00
2023-04-11T05:14:55.368Z,100.00
2023-04-11T05:17:23.880Z,100.00
2023-04-11T05:19:51.822Z,100.00
2023-04-11T05:22:18.287Z,100.00
2023-04-11T05:24:44.730Z,100.00
2023-04-11T05:27:11.218Z,100.00
2023-04-11T05:29:37.639Z,100.00
2023-04-11T05:32:04.203Z,100.00
2023-04-11T05:34:32.386Z,100.00
2023-04-11T05:36:58.876Z,100.00
2023-04-11T05:39:25.328Z,100.00
2023-04-11T05:41:51.934Z,100.00
2023-04-11T05:44:18.361Z,100.00
2023-04-11T05:46:44.763Z,100.00
2023-04-11T05:49:11.631Z,100.00
2023-04-11T05:51:38.086Z,100.00
2023-04-11T05:54:04.520Z,100.00
2023-04-11T05:56:30.973Z,100.00
2023-04-11T05:58:57.376Z,100.00
2023-04-11T06:01:23.821Z,100.00
2023-04-11T06:03:50.494Z,100.00
2023-04-11T06:06:17.339Z,100.00
2023-04-11T06:08:44.146Z,100.00
2023-04-11T06:11:11.145Z,100.00
2023-04-11T06:13:37.564Z,100.00
2023-04-11T06:16:06.418Z,100.00
2023-04-11T06:18:32.978Z,100.00
2023-04-11T06:20:59.385Z,100.00
2023-04-11T06:23:25.774Z,100.00
2023-04-11T06:25:52.867Z,100.00
2023-04-11T06:28:19.337Z,100.00
2023-04-11T06:30:45.858Z,100.00
2023-04-11T06:33:12.359Z,100.00
2023-04-11T06:35:38.924Z,100.00
2023-04-11T06:38:05.377Z,100.00
2023-04-11T06:40:31.808Z,100.00
2023-04-11T06:43:00.109Z,100.00
2023-04-11T06:45:26.750Z,100.00
2023-04-11T06:47:53.256Z,100.00
2023-04-11T06:50:19.871Z,100.00
2023-04-11T06:52:46.395Z,100.00
2023-04-11T06:55:15.375Z,100.00
2023-04-11T06:57:43.521Z,100.00
2023-04-11T07:00:12.508Z,100.00
2023-04-11T07:02:41.983Z,100.00
2023-04-11T07:05:11.395Z,100.00
2023-04-11T07:07:38.049Z,100.00
2023-04-11T07:10:06.368Z,100.00
2023-04-11T07:12:33.008Z,100.00
2023-04-11T07:14:59.492Z,100.00
2023-04-11T07:17:26.006Z,100.00
2023-04-11T07:19:52.510Z,100.00
2023-04-11T07:22:19.160Z,100.00
2023-04-11T07:24:46.481Z,99.19
2023-04-11T07:27:14.292Z,99.74
2023-04-11T07:29:41.144Z,99.44
2023-04-11T07:32:07.734Z,100.00
2023-04-11T07:34:34.182Z,100.00
2023-04-11T07:37:00.920Z,100.00
2023-04-11T07:39:27.740Z,98.33
2023-04-11T07:41:54.340Z,98.91
2023-04-11T07:44:20.746Z,98.26
2023-04-11T07:46:47.188Z,97.37
2023-04-11T07:49:13.594Z,97.59
2023-04-11T07:51:40.700Z,98.57
2023-04-11T07:54:08.651Z,98.02
2023-04-11T07:56:35.498Z,97.75
2023-04-11T07:59:02.174Z,97.19
2023-04-11T08:01:28.694Z,95.51
2023-04-11T08:03:56.312Z,93.28
2023-04-11T08:06:23.142Z,88.76
2023-04-11T08:08:51.461Z,82.35
2023-04-11T08:11:17.940Z,84.68
2023-04-11T08:13:44.382Z,85.53
2023-04-11T08:16:12.415Z,86.64
2023-04-11T08:18:42.190Z,86.84
2023-04-11T08:21:12.221Z,84.72
2023-04-11T08:23:42.877Z,79.51
2023-04-11T08:26:11.726Z,81.13
2023-04-11T08:28:39.143Z,81.82
2023-04-11T08:31:07.002Z,82.67
2023-04-11T08:33:33.563Z,82.42
2023-04-11T08:36:00.038Z,82.28
2023-04-11T08:38:26.536Z,81.71
2023-04-11T08:40:53.096Z,81.06
2023-04-11T08:43:19.697Z,80.87
2023-04-11T08:45:46.389Z,80.20
2023-04-11T08:48:12.894Z,79.56
2023-04-11T08:50:41.227Z,80.09
2023-04-11T08:53:08.794Z,80.54
2023-04-11T08:55:35.958Z,79.63
2023-04-11T08:58:03.749Z,80.67
2023-04-11T09:00:32.324Z,80.77
2023-04-11T09:03:02.293Z,81.04
2023-04-11T09:05:38.378Z,80.96
2023-04-11T09:08:13.194Z,81.29
2023-04-11T09:10:41.296Z,81.21
2023-04-11T09:13:21.667Z,80.67
2023-04-11T09:15:48.816Z,81.47
2023-04-11T09:18:47.564Z,82.18
2023-04-11T09:21:16.229Z,80.75
2023-04-11T09:23:43.033Z,80.36
2023-04-11T09:26:11.161Z,79.89
2023-04-11T09:28:54.465Z,79.27
2023-04-11T09:31:21.909Z,79.89
2023-04-11T09:33:55.994Z,80.06
2023-04-11T09:36:24.798Z,80.40
2023-04-11T09:38:51.705Z,80.85
2023-04-11T09:41:33.761Z,79.79
2023-04-11T09:44:00.837Z,79.52
2023-04-11T09:46:27.446Z,80.86
2023-04-11T09:48:54.947Z,79.53
2023-04-11T09:51:34.965Z,80.48
2023-04-11T09:54:03.506Z,79.39
2023-04-11T09:56:30.984Z,77.76
2023-04-11T09:59:00.673Z,76.95
2023-04-11T10:01:27.304Z,77.08
2023-04-11T10:03:56.158Z,74.98
2023-04-11T10:06:34.407Z,76.90
2023-04-11T10:09:11.639Z,73.77
2023-04-11T10:11:42.633Z,75.30
2023-04-11T10:14:09.213Z,76.44
2023-04-11T10:16:36.150Z,76.00
2023-04-11T10:19:04.293Z,76.15
2023-04-11T10:21:30.663Z,76.41
2023-04-11T10:24:14.978Z,75.56
2023-04-11T10:26:53.231Z,77.58
2023-04-11T10:29:28.931Z,77.67
2023-04-11T10:32:13.464Z,76.55
2023-04-11T10:35:00.613Z,75.02
2023-04-11T10:37:29.843Z,74.68
2023-04-11T10:40:08.977Z,74.86
2023-04-11T10:42:36.583Z,74.37
2023-04-11T10:45:24.659Z,74.03
2023-04-11T10:47:57.140Z,76.58
2023-04-11T10:50:23.610Z,75.45
2023-04-11T10:52:50.139Z,74.21
2023-04-11T10:55:18.276Z,74.60
2023-04-11T10:58:08.215Z,74.36
2023-04-11T11:00:47.988Z,73.16
2023-04-11T11:03:16.047Z,73.35
2023-04-11T11:05:42.884Z,74.22
2023-04-11T11:08:09.440Z,74.00
2023-04-11T11:10:47.710Z,75.09
2023-04-11T11:13:16.143Z,72.44
2023-04-11T11:15:50.425Z,74.71
2023-04-11T11:18:18.140Z,73.81
2023-04-11T11:20:44.793Z,72.70
2023-04-11T11:23:11.655Z,73.21
2023-04-11T11:25:38.099Z,72.97
2023-04-11T11:28:09.511Z,72.77
2023-04-11T11:30:37.498Z,72.30
2023-04-11T11:33:19.947Z,73.98
2023-04-11T11:35:55.701Z,71.49
2023-04-11T11:38:25.865Z,73.50
2023-04-11T11:40:53.426Z,72.48
2023-04-11T11:43:20.176Z,72.97
2023-04-11T11:45:47.020Z,73.12
2023-04-11T11:48:40.123Z,70.95
2023-04-11T11:51:07.066Z,72.11
2023-04-11T11:53:33.682Z,73.24
2023-04-11T11:56:00.374Z,73.05
2023-04-11T11:58:27.302Z,74.24
2023-04-11T12:00:53.953Z,72.99
2023-04-11T12:03:24.746Z,71.38
2023-04-11T12:05:55.128Z,71.64
2023-04-11T12:08:24.457Z,70.79
2023-04-11T12:10:51.404Z,71.84
2023-04-11T12:13:23.553Z,72.55
2023-04-11T12:15:52.511Z,72.01
2023-04-11T12:18:23.188Z,71.52
2023-04-11T12:20:50.597Z,73.30
2023-04-11T12:23:17.863Z,72.45
2023-04-11T12:25:44.808Z,72.80
2023-04-11T12:28:11.554Z,72.59
2023-04-11T12:30:38.747Z,72.27
2023-04-11T12:33:06.208Z,74.26
2023-04-11T12:35:33.107Z,72.63
2023-04-11T12:38:00.204Z,72.77
2023-04-11T12:40:26.837Z,73.54
2023-04-11T12:42:57.160Z,73.23
2023-04-11T12:45:24.563Z,71.69
2023-04-11T12:47:51.230Z,71.98
2023-04-11T12:50:17.987Z,72.13
2023-04-11T12:52:44.522Z,72.74
2023-04-11T12:55:12.564Z,74.12
2023-04-11T12:57:39.031Z,73.55
2023-04-11T13:00:07.189Z,72.64
2023-04-11T13:02:42.075Z,72.27
2023-04-11T13:05:14.612Z,72.26
2023-04-11T13:07:42.200Z,72.97
2023-04-11T13:10:09.200Z,73.85
2023-04-11T13:12:41.174Z,74.07
2023-04-11T13:15:09.522Z,73.45
2023-04-11T13:17:36.159Z,72.59
2023-04-11T13:20:07.090Z,73.79
2023-04-11T13:22:33.977Z,72.85
2023-04-11T13:25:00.626Z,73.71
2023-04-11T13:27:27.573Z,74.51
2023-04-11T13:29:54.061Z,72.65
2023-04-11T13:32:21.131Z,73.37
2023-04-11T13:34:47.700Z,72.31
2023-04-11T13:37:14.175Z,72.31
2023-04-11T13:39:40.712Z,72.64
2023-04-11T13:42:07.195Z,70.98
2023-04-11T13:44:33.810Z,69.47
2023-04-11T13:47:01.237Z,70.50
2023-04-11T13:49:28.101Z,69.75
2023-04-11T13:51:54.914Z,70.37
2023-04-11T13:54:21.460Z,68.77
2023-04-11T13:56:47.937Z,68.49
2023-04-11T13:59:14.499Z,68.69
2023-04-11T14:01:41.090Z,69.10
2023-04-11T14:04:07.734Z,69.67
2023-04-11T14:06:35.985Z,67.27
2023-04-11T14:09:04.834Z,66.29
2023-04-11T14:11:31.737Z,66.70
2023-04-11T14:13:58.628Z,68.45
2023-04-11T14:16:25.447Z,68.95
2023-04-11T14:18:51.869Z,68.29
2023-04-11T14:21:18.590Z,66.59
2023-04-11T14:23:45.138Z,65.68
2023-04-11T14:26:11.631Z,64.78
2023-04-11T14:28:38.258Z,66.50
2023-04-11T14:31:04.992Z,67.54
2023-04-11T14:33:31.819Z,67.32
2023-04-11T14:35:58.290Z,68.19
2023-04-11T14:38:24.736Z,68.49
2023-04-11T14:40:51.304Z,69.32
2023-04-11T14:43:17.735Z,69.19
2023-04-11T14:45:44.380Z,69.04
2023-04-11T14:48:10.875Z,70.01
2023-04-11T14:50:37.359Z,69.47
2023-04-11T14:53:03.973Z,70.14
2023-04-11T14:55:30.722Z,69.99
2023-04-11T14:57:57.204Z,69.46
2023-04-11T15:00:24.980Z,69.81
2023-04-11T15:02:56.096Z,69.60
2023-04-11T15:05:23.829Z,70.12
2023-04-11T15:07:52.232Z,70.14
2023-04-11T15:10:20.955Z,69.88
2023-04-11T15:12:47.476Z,68.97
2023-04-11T15:15:14.354Z,69.78
2023-04-11T15:17:43.447Z,70.76
2023-04-11T15:20:11.753Z,69.69
2023-04-11T15:22:47.856Z,68.53
2023-04-11T15:25:15.605Z,68.74
2023-04-11T15:27:42.696Z,68.75
2023-04-11T15:30:10.168Z,69.38
2023-04-11T15:32:42.347Z,69.02
2023-04-11T15:35:09.881Z,68.53
2023-04-11T15:37:36.339Z,69.58
2023-04-11T15:40:06.241Z,70.26
2023-04-11T15:42:35.340Z,70.12
2023-04-11T15:45:02.209Z,70.50
2023-04-11T15:47:29.246Z,69.89
2023-04-11T15:49:56.262Z,70.44
2023-04-11T15:52:22.728Z,70.08
2023-04-11T15:54:49.167Z,70.32
2023-04-11T15:57:24.479Z,70.76
2023-04-11T15:59:50.898Z,70.36
2023-04-11T16:02:17.506Z,71.04
2023-04-11T16:04:46.372Z,69.93
2023-04-11T16:07:18.128Z,70.50
2023-04-11T16:09:44.672Z,71.27
2023-04-11T16:12:11.230Z,71.98
2023-04-11T16:14:38.076Z,71.95
2023-04-11T16:17:04.651Z,71.44
2023-04-11T16:19:31.091Z,71.04
2023-04-11T16:21:57.527Z,70.72
2023-04-11T16:24:25.819Z,71.02
2023-04-11T16:26:52.256Z,71.59
2023-04-11T16:29:18.699Z,72.33
2023-04-11T16:31:45.187Z,71.43
2023-04-11T16:34:11.759Z,71.87
2023-04-11T16:36:38.206Z,73.08
2023-04-11T16:39:04.799Z,72.99
2023-04-11T16:41:36.105Z,72.80
2023-04-11T16:44:11.131Z,72.10
2023-04-11T16:46:41.678Z,72.31
2023-04-11T16:49:08.976Z,72.38
2023-04-11T16:51:36.577Z,72.76
2023-04-11T16:54:06.929Z,72.82
2023-04-11T16:56:33.372Z,73.20
2023-04-11T16:58:59.829Z,73.40
2023-04-11T17:01:26.341Z,74.04
2023-04-11T17:03:53.765Z,74.24
2023-04-11T17:06:20.359Z,74.84
2023-04-11T17:08:47.261Z,75.63
2023-04-11T17:11:13.966Z,76.03
2023-04-11T17:13:46.116Z,76.12
2023-04-11T17:16:13.972Z,76.43
2023-04-11T17:18:41.377Z,76.64
2023-04-11T17:21:11.124Z,77.21
2023-04-11T17:23:43.001Z,77.72
2023-04-11T17:26:17.866Z,78.11
2023-04-11T17:28:47.955Z,78.42
2023-04-11T17:31:19.735Z,79.18
2023-04-11T17:33:49.240Z,79.44
2023-04-11T17:36:31.339Z,80.04
2023-04-11T17:38:58.021Z,80.75
2023-04-11T17:41:24.473Z,80.93
2023-04-11T17:43:51.116Z,81.58
2023-04-11T17:46:17.635Z,82.22
2023-04-11T17:48:44.158Z,82.56
2023-04-11T17:51:10.591Z,83.72
2023-04-11T17:53:37.169Z,84.22
2023-04-11T17:56:05.932Z,84.16
2023-04-11T17:58:32.791Z,85.10
2023-04-11T18:00:59.560Z,85.22
2023-04-11T18:03:26.376Z,85.61
2023-04-11T18:05:55.976Z,85.59
2023-04-11T18:08:36.166Z,86.54
2023-04-11T18:11:09.654Z,87.02
2023-04-11T18:13:36.129Z,87.04
2023-04-11T18:16:02.588Z,87.63
2023-04-11T18:18:29.025Z,88.41
2023-04-11T18:21:01.517Z,88.76
2023-04-11T18:23:27.980Z,88.89
2023-04-11T18:25:54.406Z,88.69
2023-04-11T18:28:20.927Z,89.16
2023-04-11T18:30:47.315Z,89.95
2023-04-11T18:33:13.829Z,91.09
2023-04-11T18:35:40.408Z,91.52
2023-04-11T18:38:06.969Z,91.76
2023-04-11T18:40:33.817Z,91.68
2023-04-11T18:43:00.651Z,92.04
2023-04-11T18:45:27.186Z,91.89
2023-04-11T18:47:53.655Z,92.55
2023-04-11T18:50:20.496Z,92.40
2023-04-11T18:52:52.084Z,92.75
2023-04-11T18:55:20.760Z,92.51
2023-04-11T18:57:48.564Z,92.94
2023-04-11T19:00:18.454Z,93.20
2023-04-11T19:02:46.638Z,93.64
2023-04-11T19:05:14.350Z,94.05
2023-04-11T19:07:42.117Z,95.72
2023-04-11T19:10:10.220Z,95.57
2023-04-11T19:12:37.272Z,96.87
2023-04-11T19:15:06.620Z,96.70
2023-04-11T19:17:38.328Z,96.68
2023-04-11T19:20:07.000Z,96.66
2023-04-11T19:22:34.245Z,96.85
2023-04-11T19:25:00.697Z,99.52
2023-04-11T19:27:27.121Z,98.47
2023-04-11T19:29:53.545Z,98.44
2023-04-11T19:32:19.945Z,98.98
2023-04-11T19:34:47.666Z,98.60
2023-04-11T19:37:16.342Z,99.21
2023-04-11T19:39:42.754Z,98.35
2023-04-11T19:42:10.131Z,99.39
2023-04-11T19:44:36.589Z,99.98
2023-04-11T19:47:03.080Z,100.00
2023-04-11T19:49:29.470Z,100.00
2023-04-11T19:51:56.561Z,100.00
2023-04-11T19:54:23.288Z,100.00
2023-04-11T19:56:52.974Z,100.00
2023-04-11T19:59:19.422Z,100.00
2023-04-11T20:01:46.348Z,100.00
2023-04-11T20:04:13.736Z,100.00
2023-04-11T20:06:43.906Z,100.00
2023-04-11T20:09:11.586Z,100.00
2023-04-11T20:11:38.969Z,100.00
2023-04-11T20:14:05.469Z,100.00
2023-04-11T20:16:32.093Z,100.00
2023-04-11T20:18:58.647Z,100.00
2023-04-11T20:21:25.715Z,100.00
2023-04-11T20:23:52.108Z,100.00
2023-04-11T20:26:18.595Z,100.00
2023-04-11T20:28:45.075Z,100.00
2023-04-11T20:31:11.760Z,100.00
2023-04-11T20:33:38.184Z,100.00
2023-04-11T20:36:05.064Z,100.00
2023-04-11T20:38:31.616Z,100.00
2023-04-11T20:40:58.095Z,100.00
2023-04-11T20:43:26.441Z,100.00
2023-04-11T20:45:53.207Z,100.00
2023-04-11T20:48:19.939Z,100.00
2023-04-11T20:50:47.253Z,100.00
2023-04-11T20:53:14.460Z,100.00
2023-04-11T20:55:41.201Z,100.00
2023-04-11T20:58:08.551Z,100.00
2023-04-11T21:00:35.871Z,100.00
2023-04-11T21:03:02.667Z,100.00
2023-04-11T21:05:29.597Z,100.00
2023-04-11T21:07:58.176Z,100.00
2023-04-11T21:10:24.734Z,100.00
2023-04-11T21:12:51.739Z,100.00
2023-04-11T21:15:20.188Z,100.00
2023-04-11T21:17:47.605Z,100.00
2023-04-11T21:20:20.667Z,100.00
2023-04-11T21:22:48.268Z,100.00
2023-04-11T21:25:16.000Z,100.00
2023-04-11T21:27:43.097Z,100.00
2023-04-11T21:30:10.492Z,100.00
2023-04-11T21:32:37.208Z,100.00
2023-04-11T21:35:07.268Z,100.00
2023-04-11T21:37:33.870Z,100.00
2023-04-11T21:40:00.409Z,100.00
2023-04-11T21:42:27.299Z,100.00
2023-04-11T21:44:53.831Z,100.00
2023-04-11T21:47:20.344Z,100.00
2023-04-11T21:49:47.286Z,100.00
2023-04-11T21:52:14.121Z,100.00
2023-04-11T21:54:43.391Z,100.00
2023-04-11T21:57:09.945Z,100.00
2023-04-11T21:59:36.496Z,100.00
2023-04-11T22:02:03.078Z,100.00
2023-04-11T22:04:29.664Z,100.00
2023-04-11T22:06:58.829Z,100.00
2023-04-11T22:09:25.351Z,100.00
2023-04-11T22:11:52.594Z,100.00
2023-04-11T22:14:19.026Z,100.00
2023-04-11T22:16:49.177Z,100.00
2023-04-11T22:19:19.230Z,100.00
2023-04-11T22:21:55.520Z,100.00
2023-04-11T22:24:30.274Z,100.00
2023-04-11T22:27:04.072Z,100.00
2023-04-11T22:29:31.130Z,100.00
2023-04-11T22:31:59.487Z,100.00
2023-04-11T22:34:29.830Z,100.00
2023-04-11T22:36:57.703Z,100.00
2023-04-11T22:39:25.400Z,100.00
2023-04-11T22:41:52.623Z,100.00
2023-04-11T22:44:19.424Z,100.00
2023-04-11T22:47:06.580Z,100.00
2023-04-11T22:49:40.551Z,100.00
2023-04-11T22:52:14.346Z,100.00
2023-04-11T22:54:41.982Z,100.00
2023-04-11T22:57:08.417Z,100.00
2023-04-11T22:59:34.956Z,100.00
2023-04-11T23:02:01.675Z,100.00
2023-04-11T23:04:28.325Z,100.00
2023-04-11T23:06:54.813Z,100.00
2023-04-11T23:09:21.728Z,100.00
2023-04-11T23:11:48.806Z,100.00
2023-04-11T23:14:17.973Z,100.00
2023-04-11T23:16:45.083Z,100.00
2023-04-11T23:19:11.815Z,100.00
2023-04-11T23:21:38.329Z,100.00
2023-04-11T23:24:06.784Z,100.00
2023-04-11T23:26:33.497Z,100.00
2023-04-11T23:29:02.039Z,100.00
2023-04-11T23:31:28.664Z,100.00
2023-04-11T23:33:55.466Z,100.00
2023-04-11T23:36:22.632Z,100.00
2023-04-11T23:38:49.083Z,100.00
2023-04-11T23:41:15.505Z,100.00
2023-04-11T23:43:41.887Z,100.00
2023-04-11T23:46:08.401Z,100.00
2023-04-11T23:48:34.842Z,100.00
2023-04-11T23:51:01.312Z,100.00
2023-04-11T23:53:27.723Z,100.00
2023-04-11T23:55:54.203Z,100.00
2023-04-11T23:58:20.776Z,100.00
